createdAt,value
2023-07-25T00:00:52.100Z,58.21
2023-07-25T00:01:59.718Z,58.39
2023-07-25T00:03:04.762Z,58.80
2023-07-25T00:04:12.828Z,58.61
2023-07-25T00:05:18.057Z,58.71
2023-07-25T00:06:25.677Z,58.92
2023-07-25T00:07:30.710Z,59.28
2023-07-25T00:08:41.051Z,59.27
2023-07-25T00:09:45.997Z,59.36
2023-07-25T00:10:51.129Z,59.33
2023-07-25T00:12:00.053Z,59.07
2023-07-25T00:13:04.994Z,59.08
2023-07-25T00:14:12.644Z,58.99
2023-07-25T00:15:17.643Z,58.80
2023-07-25T00:16:25.592Z,58.86
2023-07-25T00:17:30.623Z,58.79
2023-07-25T00:18:38.293Z,59.07
2023-07-25T00:19:43.760Z,58.90
2023-07-25T00:20:51.505Z,58.98
2023-07-25T00:21:56.572Z,58.94
2023-07-25T00:23:04.330Z,58.87
2023-07-25T00:24:12.882Z,58.57
2023-07-25T00:25:20.993Z,59.00
2023-07-25T00:26:29.052Z,58.77
2023-07-25T00:27:36.703Z,58.86
2023-07-25T00:28:41.825Z,59.03
2023-07-25T00:29:49.688Z,59.25
2023-07-25T00:30:54.787Z,59.59
2023-07-25T00:32:02.476Z,59.41
2023-07-25T00:33:07.746Z,59.45
2023-07-25T00:34:16.205Z,59.04
2023-07-25T00:35:21.478Z,59.01
2023-07-25T00:36:29.092Z,58.91
2023-07-25T00:37:34.529Z,58.97
2023-07-25T00:38:43.497Z,59.04
2023-07-25T00:39:55.166Z,59.05
2023-07-25T00:41:02.742Z,59.49
2023-07-25T00:42:08.546Z,60.03
2023-07-25T00:43:16.906Z,60.20
2023-07-25T00:44:22.504Z,59.91
2023-07-25T00:45:30.415Z,59.82
2023-07-25T00:46:35.455Z,59.47
2023-07-25T00:47:43.360Z,59.44
2023-07-25T00:48:48.990Z,59.33
2023-07-25T00:49:58.563Z,59.32
2023-07-25T00:51:05.287Z,59.45
2023-07-25T00:52:14.279Z,59.53
2023-07-25T00:53:20.288Z,59.80
2023-07-25T00:54:28.490Z,60.00
2023-07-25T00:55:36.632Z,60.00
2023-07-25T00:56:44.631Z,59.94
2023-07-25T00:57:50.020Z,59.66
2023-07-25T00:58:58.761Z,59.62
2023-07-25T01:00:04.070Z,59.84
2023-07-25T01:01:13.473Z,59.96
2023-07-25T01:02:18.854Z,59.88
2023-07-25T01:03:27.042Z,60.09
2023-07-25T01:04:32.772Z,60.07
2023-07-25T01:05:44.794Z,60.10
2023-07-25T01:06:51.191Z,60.36
2023-07-25T01:08:00.748Z,60.36
2023-07-25T01:09:05.881Z,60.30
2023-07-25T01:10:14.038Z,60.45
2023-07-25T01:11:24.377Z,60.21
2023-07-25T01:12:32.277Z,60.27
2023-07-25T01:13:37.579Z,60.27
2023-07-25T01:14:46.456Z,60.45
2023-07-25T01:15:53.020Z,60.58
2023-07-25T01:17:01.347Z,60.41
2023-07-25T01:18:08.659Z,60.50
2023-07-25T01:19:17.150Z,60.26
2023-07-25T01:20:23.200Z,59.94
2023-07-25T01:21:32.300Z,60.43
2023-07-25T01:22:40.994Z,60.33
2023-07-25T01:23:49.389Z,60.65
2023-07-25T01:24:57.808Z,60.78
2023-07-25T01:26:05.633Z,60.60
2023-07-25T01:27:10.912Z,60.46
2023-07-25T01:28:18.895Z,60.46
2023-07-25T01:29:24.411Z,60.28
2023-07-25T01:30:32.799Z,60.58
2023-07-25T01:31:38.141Z,60.19
2023-07-25T01:32:45.915Z,60.05
2023-07-25T01:33:51.163Z,59.93
2023-07-25T01:35:00.287Z,60.08
2023-07-25T01:36:08.358Z,60.16
2023-07-25T01:37:17.548Z,60.10
2023-07-25T01:38:23.061Z,60.05
2023-07-25T01:39:28.311Z,60.25
2023-07-25T01:40:41.314Z,60.50
2023-07-25T01:41:49.770Z,60.19
2023-07-25T01:42:59.969Z,60.03
2023-07-25T01:44:05.750Z,59.89
2023-07-25T01:45:15.534Z,59.89
2023-07-25T01:46:20.704Z,59.77
2023-07-25T01:47:28.981Z,59.87
2023-07-25T01:48:34.240Z,60.19
2023-07-25T01:49:42.343Z,59.92
2023-07-25T01:50:47.637Z,59.72
2023-07-25T01:51:56.682Z,59.87
2023-07-25T01:53:01.897Z,59.99
2023-07-25T01:54:09.998Z,59.90
2023-07-25T01:55:15.353Z,59.89
2023-07-25T01:56:30.409Z,59.70
2023-07-25T01:57:35.699Z,59.87
2023-07-25T01:58:43.692Z,59.81
2023-07-25T01:59:49.617Z,59.85
2023-07-25T02:01:02.494Z,59.52
2023-07-25T02:02:09.325Z,59.62
2023-07-25T02:03:20.584Z,59.92
2023-07-25T02:04:25.517Z,60.05
2023-07-25T02:05:33.177Z,59.98
2023-07-25T02:06:38.463Z,60.00
2023-07-25T02:07:46.091Z,59.96
2023-07-25T02:08:51.297Z,60.12
2023-07-25T02:09:59.141Z,60.31
2023-07-25T02:11:04.608Z,60.19
2023-07-25T02:12:16.264Z,60.00
2023-07-25T02:13:21.351Z,60.01
2023-07-25T02:14:29.302Z,60.06
2023-07-25T02:15:34.322Z,59.95
2023-07-25T02:16:42.624Z,59.97
2023-07-25T02:17:47.615Z,60.07
2023-07-25T02:18:55.689Z,59.94
2023-07-25T02:20:00.937Z,60.01
2023-07-25T02:21:10.535Z,60.14
2023-07-25T02:22:15.619Z,60.16
2023-07-25T02:23:23.744Z,60.11
2023-07-25T02:24:28.836Z,60.23
2023-07-25T02:25:36.791Z,60.20
2023-07-25T02:26:41.841Z,60.10
2023-07-25T02:27:52.475Z,60.43
2023-07-25T02:28:57.681Z,60.11
2023-07-25T02:30:05.751Z,60.52
2023-07-25T02:31:11.157Z,60.41
2023-07-25T02:32:18.885Z,60.28
2023-07-25T02:33:24.203Z,60.41
2023-07-25T02:34:32.500Z,60.78
2023-07-25T02:35:37.682Z,60.82
2023-07-25T02:36:45.279Z,60.56
2023-07-25T02:37:50.242Z,60.16
2023-07-25T02:38:58.078Z,60.35
2023-07-25T02:40:03.953Z,60.43
2023-07-25T02:41:11.892Z,60.16
2023-07-25T02:42:16.906Z,60.24
2023-07-25T02:43:27.464Z,60.43
2023-07-25T02:44:32.654Z,60.37
2023-07-25T02:45:40.405Z,60.30
2023-07-25T02:46:45.404Z,60.09
2023-07-25T02:47:53.428Z,60.41
2023-07-25T02:49:00.197Z,60.43
2023-07-25T02:50:08.428Z,60.27
2023-07-25T02:51:13.540Z,60.52
2023-07-25T02:52:22.368Z,60.54
2023-07-25T02:53:27.463Z,60.27
2023-07-25T02:54:35.188Z,60.47
2023-07-25T02:55:41.451Z,60.62
2023-07-25T02:56:49.458Z,60.14
2023-07-25T02:57:54.598Z,60.45
2023-07-25T02:59:05.034Z,60.50
2023-07-25T03:00:11.562Z,60.53
2023-07-25T03:01:20.091Z,60.08
2023-07-25T03:02:25.516Z,59.69
2023-07-25T03:03:33.578Z,60.33
2023-07-25T03:04:38.644Z,60.50
2023-07-25T03:05:46.314Z,60.51
2023-07-25T03:06:51.525Z,60.37
2023-07-25T03:07:56.577Z,60.49
2023-07-25T03:09:05.057Z,60.05
2023-07-25T03:10:10.903Z,60.12
2023-07-25T03:11:18.580Z,60.14
2023-07-25T03:12:26.981Z,60.43
2023-07-25T03:13:34.662Z,60.12
2023-07-25T03:14:42.349Z,60.17
2023-07-25T03:15:51.210Z,60.13
2023-07-25T03:16:56.448Z,60.60
2023-07-25T03:18:05.050Z,60.53
2023-07-25T03:19:10.140Z,60.45
2023-07-25T03:20:18.104Z,60.60
2023-07-25T03:21:23.037Z,60.44
2023-07-25T03:22:30.881Z,60.29
2023-07-25T03:23:35.883Z,60.47
2023-07-25T03:24:43.652Z,60.19
2023-07-25T03:25:48.714Z,60.09
2023-07-25T03:26:56.682Z,60.44
2023-07-25T03:28:01.721Z,60.19
2023-07-25T03:29:10.105Z,60.39
2023-07-25T03:30:17.790Z,60.34
2023-07-25T03:31:25.538Z,60.46
2023-07-25T03:32:30.709Z,60.80
2023-07-25T03:33:38.366Z,60.84
2023-07-25T03:34:43.313Z,60.66
2023-07-25T03:35:51.160Z,60.77
2023-07-25T03:36:58.964Z,60.71
2023-07-25T03:38:03.953Z,60.69
2023-07-25T03:39:12.465Z,60.37
2023-07-25T03:40:17.418Z,60.58
2023-07-25T03:41:25.109Z,60.89
2023-07-25T03:42:30.017Z,61.33
2023-07-25T03:43:37.795Z,60.96
2023-07-25T03:44:42.755Z,60.83
2023-07-25T03:45:53.384Z,60.97
2023-07-25T03:46:58.349Z,61.40
2023-07-25T03:48:06.097Z,61.11
2023-07-25T03:49:11.203Z,60.95
2023-07-25T03:50:18.886Z,61.20
2023-07-25T03:51:23.861Z,61.13
2023-07-25T03:52:31.844Z,61.02
2023-07-25T03:53:36.766Z,60.73
2023-07-25T03:54:44.631Z,61.13
2023-07-25T03:55:49.607Z,60.79
2023-07-25T03:56:57.384Z,60.93
2023-07-25T03:58:02.410Z,60.56
2023-07-25T03:59:10.100Z,60.85
2023-07-25T04:00:16.303Z,60.98
2023-07-25T04:01:26.726Z,61.10
2023-07-25T04:02:32.136Z,60.86
2023-07-25T04:03:40.072Z,61.10
2023-07-25T04:04:45.443Z,60.85
2023-07-25T04:05:50.706Z,60.78
2023-07-25T04:06:58.392Z,60.77
2023-07-25T04:08:03.516Z,60.54
2023-07-25T04:09:11.312Z,60.73
2023-07-25T04:10:16.335Z,60.84
2023-07-25T04:11:24.048Z,60.72
2023-07-25T04:12:29.281Z,60.73
2023-07-25T04:13:37.170Z,60.82
2023-07-25T04:14:43.086Z,61.08
2023-07-25T04:15:50.719Z,61.03
2023-07-25T04:16:58.472Z,61.22
2023-07-25T04:18:06.525Z,61.43
2023-07-25T04:19:11.626Z,61.61
2023-07-25T04:20:19.331Z,61.44
2023-07-25T04:21:24.602Z,61.56
2023-07-25T04:22:32.397Z,61.30
2023-07-25T04:23:37.373Z,61.02
2023-07-25T04:24:45.048Z,61.06
2023-07-25T04:25:50.023Z,61.09
2023-07-25T04:26:58.038Z,60.65
2023-07-25T04:28:03.037Z,60.82
2023-07-25T04:29:10.687Z,61.00
2023-07-25T04:30:15.703Z,60.93
2023-07-25T04:31:23.296Z,60.92
2023-07-25T04:32:31.147Z,60.80
2023-07-25T04:33:38.926Z,60.65
2023-07-25T04:34:44.498Z,60.91
2023-07-25T04:35:52.146Z,60.87
2023-07-25T04:36:57.464Z,60.74
2023-07-25T04:38:05.131Z,60.73
2023-07-25T04:39:10.114Z,60.63
2023-07-25T04:40:18.941Z,60.64
2023-07-25T04:41:25.246Z,60.78
2023-07-25T04:42:32.981Z,60.84
2023-07-25T04:43:38.130Z,61.05
2023-07-25T04:44:45.760Z,60.89
2023-07-25T04:45:54.662Z,61.14
2023-07-25T04:47:03.256Z,60.88
2023-07-25T04:48:11.214Z,61.14
2023-07-25T04:49:19.073Z,61.22
2023-07-25T04:50:24.030Z,60.96
2023-07-25T04:51:32.847Z,61.06
2023-07-25T04:52:38.153Z,60.78
2023-07-25T04:53:45.845Z,61.15
2023-07-25T04:54:51.069Z,61.10
2023-07-25T04:55:58.709Z,61.08
2023-07-25T04:57:03.958Z,61.09
2023-07-25T04:58:11.886Z,61.26
2023-07-25T04:59:17.011Z,60.81
2023-07-25T05:00:24.927Z,61.18
2023-07-25T05:01:30.333Z,61.05
2023-07-25T05:02:43.167Z,61.05
2023-07-25T05:03:50.967Z,61.06
2023-07-25T05:04:58.561Z,60.99
2023-07-25T05:06:03.498Z,61.29
2023-07-25T05:07:12.014Z,60.92
2023-07-25T05:08:16.919Z,61.16
2023-07-25T05:09:24.720Z,61.29
2023-07-25T05:10:29.645Z,61.38
2023-07-25T05:11:37.619Z,61.36
2023-07-25T05:12:42.771Z,61.54
2023-07-25T05:13:52.237Z,61.70
2023-07-25T05:14:57.205Z,61.50
2023-07-25T05:16:04.898Z,61.97
2023-07-25T05:17:09.895Z,62.30
2023-07-25T05:18:18.843Z,62.38
2023-07-25T05:19:27.468Z,62.09
2023-07-25T05:20:35.271Z,62.35
2023-07-25T05:21:40.261Z,62.26
2023-07-25T05:22:48.114Z,62.31
2023-07-25T05:23:53.202Z,62.30
2023-07-25T05:25:00.969Z,62.30
2023-07-25T05:26:05.885Z,62.05
2023-07-25T05:27:15.562Z,62.01
2023-07-25T05:28:21.746Z,61.98
2023-07-25T05:29:29.397Z,61.60
2023-07-25T05:30:34.379Z,61.91
2023-07-25T05:31:42.080Z,62.06
2023-07-25T05:32:49.439Z,61.80
2023-07-25T05:33:57.048Z,61.91
2023-07-25T05:35:04.830Z,61.92
2023-07-25T05:36:12.539Z,61.71
2023-07-25T05:37:20.464Z,62.05
2023-07-25T05:38:28.114Z,62.15
2023-07-25T05:39:33.137Z,61.87
2023-07-25T05:40:40.814Z,61.93
2023-07-25T05:41:45.734Z,62.16
2023-07-25T05:42:54.925Z,62.01
2023-07-25T05:43:59.837Z,62.32
2023-07-25T05:45:07.685Z,62.53
2023-07-25T05:46:12.814Z,62.59
2023-07-25T05:47:20.460Z,62.11
2023-07-25T05:48:25.449Z,61.98
2023-07-25T05:49:33.453Z,62.19
2023-07-25T05:50:41.103Z,61.99
2023-07-25T05:51:48.636Z,62.46
2023-07-25T05:52:53.616Z,62.41
2023-07-25T05:54:01.454Z,62.27
2023-07-25T05:55:06.955Z,62.66
2023-07-25T05:56:14.570Z,62.39
2023-07-25T05:57:19.847Z,63.00
2023-07-25T05:58:29.397Z,62.90
2023-07-25T05:59:34.305Z,62.83
2023-07-25T06:00:44.227Z,62.85
2023-07-25T06:01:49.668Z,62.64
2023-07-25T06:02:57.675Z,62.33
2023-07-25T06:04:02.990Z,62.35
2023-07-25T06:05:11.298Z,62.26
2023-07-25T06:06:18.884Z,62.11
2023-07-25T06:07:26.641Z,62.12
2023-07-25T06:08:31.632Z,62.24
2023-07-25T06:09:39.208Z,61.86
2023-07-25T06:10:44.781Z,61.70
2023-07-25T06:11:52.788Z,61.66
2023-07-25T06:12:58.429Z,61.59
2023-07-25T06:14:08.288Z,61.63
2023-07-25T06:15:14.371Z,61.48
2023-07-25T06:16:22.311Z,61.35
2023-07-25T06:17:27.352Z,61.85
2023-07-25T06:18:35.120Z,61.27
2023-07-25T06:19:40.148Z,61.37
2023-07-25T06:20:47.844Z,61.16
2023-07-25T06:21:55.625Z,61.14
2023-07-25T06:23:03.536Z,60.97
2023-07-25T06:24:08.846Z,61.22
2023-07-25T06:25:17.380Z,61.06
2023-07-25T06:26:22.449Z,61.30
2023-07-25T06:27:32.528Z,61.29
2023-07-25T06:28:37.669Z,61.11
2023-07-25T06:29:45.225Z,61.32
2023-07-25T06:30:50.501Z,61.23
2023-07-25T06:31:58.354Z,61.15
2023-07-25T06:33:03.992Z,61.06
2023-07-25T06:34:11.812Z,60.88
2023-07-25T06:35:16.837Z,60.93
2023-07-25T06:36:24.707Z,60.93
2023-07-25T06:37:32.367Z,60.83
2023-07-25T06:38:40.049Z,60.92
2023-07-25T06:39:45.223Z,60.95
2023-07-25T06:40:53.099Z,61.19
2023-07-25T06:41:58.032Z,61.39
2023-07-25T06:43:05.634Z,61.15
2023-07-25T06:44:11.803Z,61.39
2023-07-25T06:45:21.023Z,61.01
2023-07-25T06:46:26.809Z,60.91
2023-07-25T06:47:34.512Z,61.20
2023-07-25T06:48:39.505Z,61.24
2023-07-25T06:49:47.167Z,61.05
2023-07-25T06:50:52.075Z,60.97
2023-07-25T06:52:02.073Z,60.92
2023-07-25T06:53:09.745Z,61.02
2023-07-25T06:54:17.384Z,61.09
2023-07-25T06:55:22.284Z,60.78
2023-07-25T06:56:29.882Z,60.86
2023-07-25T06:57:34.895Z,60.98
2023-07-25T06:58:42.479Z,60.88
2023-07-25T06:59:47.576Z,60.67
2023-07-25T07:00:55.244Z,60.77
2023-07-25T07:02:00.400Z,60.62
2023-07-25T07:03:08.479Z,60.90
2023-07-25T07:04:13.567Z,61.19
2023-07-25T07:05:29.281Z,60.84
2023-07-25T07:06:35.457Z,60.64
2023-07-25T07:07:45.630Z,60.85
2023-07-25T07:08:53.285Z,61.15
2023-07-25T07:10:01.184Z,60.90
2023-07-25T07:11:06.183Z,61.04
2023-07-25T07:12:13.921Z,60.76
2023-07-25T07:13:18.957Z,60.66
2023-07-25T07:14:26.560Z,60.50
2023-07-25T07:15:31.468Z,60.62
2023-07-25T07:16:39.428Z,60.29
2023-07-25T07:17:44.696Z,60.84
2023-07-25T07:18:52.854Z,60.67
2023-07-25T07:20:00.874Z,60.68
2023-07-25T07:21:09.812Z,60.77
2023-07-25T07:22:14.734Z,60.53
2023-07-25T07:23:22.508Z,60.44
2023-07-25T07:24:30.081Z,60.59
2023-07-25T07:25:38.799Z,60.58
2023-07-25T07:26:46.428Z,60.35
2023-07-25T07:27:51.472Z,60.57
2023-07-25T07:28:59.109Z,60.79
2023-07-25T07:30:05.998Z,60.37
2023-07-25T07:31:14.821Z,60.66
2023-07-25T07:32:19.890Z,60.46
2023-07-25T07:33:29.271Z,60.64
2023-07-25T07:34:34.157Z,60.65
2023-07-25T07:35:41.717Z,60.84
2023-07-25T07:36:49.931Z,61.08
2023-07-25T07:37:57.596Z,61.17
2023-07-25T07:39:02.502Z,60.94
2023-07-25T07:40:13.929Z,61.00
2023-07-25T07:41:18.791Z,60.90
2023-07-25T07:42:26.367Z,61.02
2023-07-25T07:43:34.292Z,60.76
2023-07-25T07:44:42.185Z,60.88
2023-07-25T07:45:47.434Z,61.16
2023-07-25T07:46:55.170Z,60.85
2023-07-25T07:48:02.612Z,60.98
2023-07-25T07:49:10.362Z,61.00
2023-07-25T07:50:15.301Z,60.84
2023-07-25T07:51:25.534Z,60.67
2023-07-25T07:52:41.064Z,60.86
2023-07-25T07:53:51.585Z,60.81
2023-07-25T07:54:57.119Z,61.00
2023-07-25T07:56:12.760Z,60.88
2023-07-25T07:57:17.810Z,60.98
2023-07-25T07:58:25.424Z,61.12
2023-07-25T07:59:30.354Z,61.22
2023-07-25T08:00:38.074Z,61.07
2023-07-25T08:01:43.003Z,60.73
2023-07-25T08:02:50.956Z,60.76
2023-07-25T08:03:55.992Z,61.35
2023-07-25T08:05:03.572Z,61.09
2023-07-25T08:06:08.463Z,60.83
2023-07-25T08:07:16.178Z,61.29
2023-07-25T08:08:21.204Z,60.98
2023-07-25T08:09:28.871Z,61.09
2023-07-25T08:10:34.335Z,60.96
2023-07-25T08:11:46.286Z,61.00
2023-07-25T08:12:51.209Z,61.12
2023-07-25T08:13:58.805Z,61.13
2023-07-25T08:15:04.094Z,60.98
2023-07-25T08:16:11.935Z,61.12
2023-07-25T08:17:17.445Z,61.15
2023-07-25T08:18:27.342Z,61.16
2023-07-25T08:19:32.307Z,61.17
2023-07-25T08:20:39.877Z,61.05
2023-07-25T08:21:44.811Z,61.01
2023-07-25T08:22:52.426Z,61.01
2023-07-25T08:23:57.429Z,61.37
2023-07-25T08:25:05.324Z,61.08
2023-07-25T08:26:10.389Z,60.97
2023-07-25T08:27:20.682Z,60.95
2023-07-25T08:28:26.087Z,61.14
2023-07-25T08:29:33.766Z,61.28
2023-07-25T08:30:38.805Z,61.47
2023-07-25T08:31:46.525Z,61.28
2023-07-25T08:32:51.502Z,61.37
2023-07-25T08:33:59.145Z,61.42
2023-07-25T08:35:04.292Z,61.47
2023-07-25T08:36:11.980Z,61.54
2023-07-25T08:37:16.946Z,61.13
2023-07-25T08:38:24.596Z,61.14
2023-07-25T08:39:29.517Z,61.24
2023-07-25T08:40:37.220Z,61.37
2023-07-25T08:41:48.001Z,61.13
2023-07-25T08:43:07.755Z,61.17
2023-07-25T08:44:13.988Z,61.37
2023-07-25T08:45:23.743Z,60.95
2023-07-25T08:46:32.539Z,61.45
2023-07-25T08:47:46.705Z,61.40
2023-07-25T08:48:57.577Z,61.36
2023-07-25T08:50:09.179Z,61.28
2023-07-25T08:51:21.007Z,61.29
2023-07-25T08:52:33.514Z,61.40
2023-07-25T08:53:49.185Z,61.43
2023-07-25T08:54:57.177Z,61.36
2023-07-25T08:56:03.586Z,61.19
2023-07-25T08:57:13.438Z,61.10
2023-07-25T08:58:21.941Z,61.30
2023-07-25T08:59:31.399Z,61.17
2023-07-25T09:00:37.239Z,61.10
2023-07-25T09:01:45.002Z,61.03
2023-07-25T09:02:53.275Z,60.83
2023-07-25T09:04:01.645Z,61.13
2023-07-25T09:05:09.878Z,61.04
2023-07-25T09:06:18.324Z,60.84
2023-07-25T09:07:23.263Z,60.77
2023-07-25T09:08:31.477Z,60.90
2023-07-25T09:09:38.962Z,60.79
2023-07-25T09:10:49.581Z,60.83
2023-07-25T09:11:56.818Z,60.85
2023-07-25T09:13:04.479Z,60.52
2023-07-25T09:14:12.813Z,60.30
2023-07-25T09:15:20.922Z,60.83
2023-07-25T09:16:25.998Z,60.52
2023-07-25T09:17:35.598Z,60.85
2023-07-25T09:18:40.640Z,60.81
2023-07-25T09:19:48.254Z,61.09
2023-07-25T09:20:53.546Z,61.07
2023-07-25T09:22:02.430Z,60.98
2023-07-25T09:23:10.083Z,60.89
2023-07-25T09:24:17.692Z,60.81
2023-07-25T09:25:22.634Z,60.82
2023-07-25T09:26:32.566Z,60.98
2023-07-25T09:27:37.796Z,61.05
2023-07-25T09:28:55.924Z,60.89
2023-07-25T09:30:14.409Z,60.90
2023-07-25T09:31:22.452Z,60.82
2023-07-25T09:32:30.062Z,60.82
2023-07-25T09:33:37.689Z,60.69
2023-07-25T09:34:47.184Z,60.75
2023-07-25T09:35:57.021Z,60.68
2023-07-25T09:37:05.825Z,60.87
2023-07-25T09:38:13.706Z,60.50
2023-07-25T09:39:20.024Z,60.92
2023-07-25T09:40:28.108Z,60.50
2023-07-25T09:41:33.389Z,60.70
2023-07-25T09:42:46.162Z,60.59
2023-07-25T09:43:51.960Z,60.66
2023-07-25T09:45:01.438Z,60.53
2023-07-25T09:46:09.933Z,60.80
2023-07-25T09:47:17.816Z,60.69
2023-07-25T09:48:23.622Z,60.73
2023-07-25T09:49:31.296Z,60.36
2023-07-25T09:50:36.872Z,60.47
2023-07-25T09:52:02.760Z,60.32
2023-07-25T09:53:12.577Z,60.48
2023-07-25T09:54:20.155Z,60.79
2023-07-25T09:55:25.643Z,60.67
2023-07-25T09:56:33.273Z,60.82
2023-07-25T09:57:38.432Z,61.01
2023-07-25T09:59:04.448Z,60.95
2023-07-25T10:00:12.603Z,61.14
2023-07-25T10:01:24.086Z,61.06
2023-07-25T10:02:29.077Z,60.76
2023-07-25T10:03:37.603Z,60.52
2023-07-25T10:04:43.123Z,60.75
2023-07-25T10:05:53.236Z,60.81
2023-07-25T10:07:04.111Z,60.73
2023-07-25T10:08:14.037Z,60.54
2023-07-25T10:09:20.216Z,60.81
2023-07-25T10:10:28.913Z,61.10
2023-07-25T10:11:34.951Z,60.83
2023-07-25T10:12:42.730Z,60.41
2023-07-25T10:13:48.201Z,60.66
2023-07-25T10:14:56.048Z,60.62
2023-07-25T10:16:05.512Z,60.74
2023-07-25T10:17:16.360Z,60.89
2023-07-25T10:18:23.774Z,60.70
2023-07-25T10:19:31.821Z,60.83
2023-07-25T10:20:36.761Z,60.41
2023-07-25T10:21:53.685Z,60.45
2023-07-25T10:23:10.045Z,60.53
2023-07-25T10:24:19.829Z,60.34
2023-07-25T10:25:30.436Z,60.45
2023-07-25T10:26:38.079Z,60.73
2023-07-25T10:27:43.338Z,60.39
2023-07-25T10:28:51.039Z,60.82
2023-07-25T10:30:00.737Z,60.44
2023-07-25T10:31:11.607Z,60.39
2023-07-25T10:32:23.510Z,60.57
2023-07-25T10:33:31.264Z,60.66
2023-07-25T10:34:51.048Z,60.08
2023-07-25T10:35:59.636Z,60.11
2023-07-25T10:37:22.505Z,60.59
2023-07-25T10:38:38.746Z,60.87
2023-07-25T10:39:43.793Z,60.69
2023-07-25T10:41:02.109Z,60.76
2023-07-25T10:42:17.533Z,60.57
2023-07-25T10:43:26.468Z,60.69
2023-07-25T10:44:39.311Z,60.38
2023-07-25T10:45:55.485Z,60.75
2023-07-25T10:47:02.817Z,61.12
2023-07-25T10:48:38.876Z,60.96
2023-07-25T10:49:58.237Z,61.27
2023-07-25T10:51:09.365Z,61.03
2023-07-25T10:52:14.389Z,60.72
2023-07-25T10:53:22.163Z,61.02
2023-07-25T10:54:30.420Z,61.16
2023-07-25T10:55:35.384Z,60.74
2023-07-25T10:56:44.038Z,60.71
2023-07-25T10:58:09.768Z,61.28
2023-07-25T10:59:18.260Z,61.76
2023-07-25T11:00:37.202Z,61.78
2023-07-25T11:01:50.297Z,61.74
2023-07-25T11:02:55.507Z,61.59
2023-07-25T11:04:23.400Z,61.66
2023-07-25T11:05:33.970Z,61.39
2023-07-25T11:06:42.521Z,61.38
2023-07-25T11:08:00.104Z,61.56
2023-07-25T11:09:13.983Z,61.84
2023-07-25T11:10:24.843Z,61.93
2023-07-25T11:11:30.109Z,62.13
2023-07-25T11:12:38.451Z,62.13
2023-07-25T11:13:45.372Z,62.30
2023-07-25T11:14:53.837Z,62.23
2023-07-25T11:16:01.367Z,61.89
2023-07-25T11:17:09.958Z,62.47
2023-07-25T11:18:16.936Z,62.45
2023-07-25T11:19:31.357Z,61.87
2023-07-25T11:20:36.467Z,61.66
2023-07-25T11:21:45.404Z,61.78
2023-07-25T11:22:51.455Z,61.73
2023-07-25T11:24:06.105Z,61.87
2023-07-25T11:25:15.043Z,61.86
2023-07-25T11:26:19.997Z,62.26
2023-07-25T11:27:28.097Z,61.95
2023-07-25T11:28:33.155Z,62.45
2023-07-25T11:29:41.032Z,62.29
2023-07-25T11:30:46.410Z,62.62
2023-07-25T11:31:54.829Z,61.91
2023-07-25T11:32:59.769Z,62.42
2023-07-25T11:34:14.697Z,62.23
2023-07-25T11:35:23.562Z,62.27
2023-07-25T11:36:31.997Z,61.87
2023-07-25T11:37:36.877Z,61.93
2023-07-25T11:38:44.468Z,61.77
2023-07-25T11:39:51.556Z,62.28
2023-07-25T11:41:01.772Z,62.18
2023-07-25T11:42:10.072Z,62.03
2023-07-25T11:43:18.447Z,62.01
2023-07-25T11:44:23.512Z,61.52
2023-07-25T11:45:31.876Z,62.00
2023-07-25T11:46:37.507Z,62.14
2023-07-25T11:47:46.905Z,62.05
2023-07-25T11:48:52.545Z,62.50
2023-07-25T11:50:15.201Z,62.20
2023-07-25T11:51:29.621Z,61.86
2023-07-25T11:52:38.716Z,62.18
2023-07-25T11:53:46.838Z,62.17
2023-07-25T11:54:55.183Z,61.98
2023-07-25T11:56:02.209Z,62.14
2023-07-25T11:57:13.318Z,61.70
2023-07-25T11:58:20.555Z,62.01
2023-07-25T11:59:28.354Z,61.75
2023-07-25T12:00:42.401Z,61.83
2023-07-25T12:01:51.255Z,62.35
2023-07-25T12:02:56.445Z,61.96
2023-07-25T12:04:05.679Z,61.84
2023-07-25T12:05:26.974Z,62.08
2023-07-25T12:06:38.541Z,62.33
2023-07-25T12:07:53.255Z,62.75
2023-07-25T12:09:01.690Z,62.65
2023-07-25T12:10:07.387Z,62.62
2023-07-25T12:11:16.339Z,62.59
2023-07-25T12:12:22.042Z,62.75
2023-07-25T12:13:31.252Z,62.61
2023-07-25T12:14:36.122Z,62.64
2023-07-25T12:15:51.732Z,62.62
2023-07-25T12:16:56.866Z,62.32
2023-07-25T12:18:05.695Z,62.12
2023-07-25T12:19:12.627Z,62.15
2023-07-25T12:20:21.682Z,62.51
2023-07-25T12:21:29.887Z,62.43
2023-07-25T12:22:40.626Z,62.19
2023-07-25T12:23:45.633Z,62.47
2023-07-25T12:24:54.251Z,61.85
2023-07-25T12:26:04.046Z,62.03
2023-07-25T12:27:21.637Z,61.07
2023-07-25T12:28:26.945Z,61.24
2023-07-25T12:29:34.580Z,60.45
2023-07-25T12:30:39.573Z,61.04
2023-07-25T12:31:47.249Z,61.52
2023-07-25T12:32:54.251Z,61.10
2023-07-25T12:34:01.906Z,61.29
2023-07-25T12:35:07.886Z,60.70
2023-07-25T12:36:15.737Z,60.80
2023-07-25T12:37:20.737Z,60.90
2023-07-25T12:38:31.009Z,60.86
2023-07-25T12:39:35.920Z,61.64
2023-07-25T12:40:43.861Z,61.78
2023-07-25T12:41:48.962Z,61.70
2023-07-25T12:42:56.748Z,61.19
2023-07-25T12:44:02.597Z,60.95
2023-07-25T12:45:11.908Z,61.19
2023-07-25T12:46:17.091Z,60.87
2023-07-25T12:47:24.744Z,61.50
2023-07-25T12:48:29.686Z,61.41
2023-07-25T12:49:37.392Z,61.09
2023-07-25T12:50:42.799Z,61.53
2023-07-25T12:51:50.396Z,61.57
2023-07-25T12:52:55.327Z,61.80
2023-07-25T12:54:05.638Z,61.66
2023-07-25T12:55:13.374Z,61.94
2023-07-25T12:56:21.029Z,61.70
2023-07-25T12:57:26.491Z,61.86
2023-07-25T12:58:34.186Z,62.34
2023-07-25T12:59:39.120Z,62.59
2023-07-25T13:00:46.806Z,62.08
2023-07-25T13:01:51.961Z,62.14
2023-07-25T13:03:00.315Z,61.85
2023-07-25T13:04:05.800Z,61.44
2023-07-25T13:05:13.883Z,62.17
2023-07-25T13:06:18.864Z,62.21
2023-07-25T13:07:26.636Z,61.77
2023-07-25T13:08:31.697Z,61.46
2023-07-25T13:09:42.023Z,61.91
2023-07-25T13:10:47.703Z,61.96
2023-07-25T13:11:55.336Z,61.64
2023-07-25T13:13:00.300Z,61.24
2023-07-25T13:14:08.258Z,60.78
2023-07-25T13:15:13.418Z,61.07
2023-07-25T13:16:21.204Z,60.99
2023-07-25T13:17:26.371Z,61.05
2023-07-25T13:18:34.578Z,60.91
2023-07-25T13:19:40.262Z,61.23
2023-07-25T13:20:48.161Z,61.16
2023-07-25T13:21:54.342Z,60.69
2023-07-25T13:23:02.076Z,60.76
2023-07-25T13:24:07.313Z,60.68
2023-07-25T13:25:17.812Z,60.57
2023-07-25T13:26:22.775Z,60.90
2023-07-25T13:27:30.745Z,60.70
2023-07-25T13:28:35.826Z,60.70
2023-07-25T13:29:43.650Z,60.85
2023-07-25T13:30:48.784Z,60.89
2023-07-25T13:31:56.540Z,60.88
2023-07-25T13:33:02.662Z,61.00
2023-07-25T13:34:10.293Z,60.73
2023-07-25T13:35:15.295Z,60.68
2023-07-25T13:36:23.373Z,60.70
2023-07-25T13:37:28.528Z,61.05
2023-07-25T13:38:36.248Z,61.32
2023-07-25T13:39:41.655Z,61.18
2023-07-25T13:40:54.565Z,60.90
2023-07-25T13:41:59.524Z,60.72
2023-07-25T13:43:07.230Z,60.85
2023-07-25T13:44:12.146Z,60.25
2023-07-25T13:45:19.800Z,60.64
2023-07-25T13:46:25.011Z,61.15
2023-07-25T13:47:32.815Z,60.65
2023-07-25T13:48:38.405Z,61.14
2023-07-25T13:49:46.246Z,60.89
2023-07-25T13:50:55.037Z,60.84
2023-07-25T13:52:04.468Z,61.26
2023-07-25T13:53:09.871Z,61.38
2023-07-25T13:54:20.846Z,61.55
2023-07-25T13:55:25.751Z,61.44
2023-07-25T13:56:38.588Z,61.37
2023-07-25T13:57:44.582Z,60.71
2023-07-25T13:58:59.769Z,61.00
2023-07-25T14:00:05.737Z,60.81
2023-07-25T14:01:13.586Z,60.93
2023-07-25T14:02:18.656Z,60.73
2023-07-25T14:03:28.194Z,60.94
2023-07-25T14:04:35.030Z,60.94
2023-07-25T14:05:42.683Z,61.21
2023-07-25T14:06:52.788Z,60.48
2023-07-25T14:08:00.464Z,60.89
2023-07-25T14:09:06.745Z,60.78
2023-07-25T14:10:17.596Z,60.61
2023-07-25T14:11:22.943Z,60.40
2023-07-25T14:12:34.564Z,60.18
2023-07-25T14:13:39.630Z,60.17
2023-07-25T14:14:47.340Z,60.37
2023-07-25T14:15:53.328Z,60.21
2023-07-25T14:17:02.955Z,59.87
2023-07-25T14:18:08.120Z,59.94
2023-07-25T14:19:16.766Z,60.17
2023-07-25T14:20:21.920Z,60.11
2023-07-25T14:21:29.950Z,59.96
2023-07-25T14:22:35.090Z,59.87
2023-07-25T14:23:43.245Z,60.38
2023-07-25T14:24:48.245Z,60.09
2023-07-25T14:25:55.949Z,60.72
2023-07-25T14:27:00.845Z,60.50
2023-07-25T14:28:11.887Z,60.55
2023-07-25T14:29:17.252Z,60.96
2023-07-25T14:30:24.958Z,60.84
2023-07-25T14:31:30.110Z,60.33
2023-07-25T14:32:37.862Z,60.80